Time;durP1;ratioP1;P1;durP2;ratioP2;P2;SDS_P1;SDS_P2;PMS_P1;PMS_P2;Temp;Humidity;BMP_temperature;BMP_pressure;BME280_temperature;BME280_humidity;BME280_pressure;Samples;Min_cycle;Max_cycle;Signal;HPM_P1;HPM_P2
2022/11/08 00:01:30;;;;;;;9.93;3.00;;;;;;;;;;5073552;28;20048;-84
2022/11/08 00:04:02;;;;;;;6.43;2.90;;;;;;;;;;5056180;28;20495;-85
2022/11/08 00:14:48;;;;;;;7.68;3.33;;;;;;;;;;5074089;28;20419;-85
2022/11/08 00:17:16;;;;;;;3.55;2.72;;;;;;;;;;5074685;28;20059;-84
2022/11/08 00:19:43;;;;;;;6.68;2.90;;;;;;;;;;5055807;28;20052;-84
2022/11/08 00:22:11;;;;;;;6.20;3.17;;;;;;;;;;5073789;28;20135;-84
2022/11/08 00:24:38;;;;;;;5.90;3.00;;;;;;;;;;5074147;28;20049;-85
2022/11/08 00:27:07;;;;;;;11.10;2.70;;;;;;;;;;5056564;28;20392;-84
2022/11/08 00:29:35;;;;;;;5.68;3.00;;;;;;;;;;5056035;28;20055;-84
2022/11/08 00:32:03;;;;;;;10.98;3.10;;;;;;;;;;5055921;28;20051;-85
2022/11/08 00:34:31;;;;;;;8.35;3.20;;;;;;;;;;5055485;28;20128;-84
2022/11/08 00:36:59;;;;;;;7.03;2.97;;;;;;;;;;5056025;28;20051;-84
2022/11/08 00:39:26;;;;;;;6.68;2.65;;;;;;;;;;5056410;28;20053;-85
2022/11/08 00:41:53;;;;;;;5.95;2.70;;;;;;;;;;5052835;28;20479;-84
2022/11/08 00:44:21;;;;;;;10.80;2.88;;;;;;;;;;5053862;28;20087;-84
2022/11/08 00:46:48;;;;;;;7.30;2.58;;;;;;;;;;5053907;28;20055;-84
2022/11/08 00:49:15;;;;;;;10.15;3.55;;;;;;;;;;5053458;28;20056;-84
2022/11/08 00:51:43;;;;;;;8.80;3.00;;;;;;;;;;5055014;28;20049;-84
2022/11/08 00:54:12;;;;;;;8.82;2.90;;;;;;;;;;5057955;28;20045;-84
2022/11/08 00:56:39;;;;;;;7.60;2.80;;;;;;;;;;5061952;28;20067;-85
2022/11/08 00:59:07;;;;;;;4.55;2.50;;;;;;;;;;5059860;28;20049;-85
2022/11/08 01:01:34;;;;;;;6.25;2.60;;;;;;;;;;5059673;28;20052;-85
2022/11/08 01:04:02;;;;;;;7.63;3.03;;;;;;;;;;5059363;28;20438;-84
2022/11/08 01:06:30;;;;;;;10.75;2.60;;;;;;;;;;5060832;28;20499;-83
2022/11/08 01:08:57;;;;;;;8.07;2.88;;;;;;;;;;5059153;28;20064;-83
2022/11/08 01:11:25;;;;;;;8.88;2.80;;;;;;;;;;5058169;28;20052;-83
2022/11/08 01:13:55;;;;;;;10.82;2.72;;;;;;;;;;5060070;28;20045;-83
2022/11/08 01:16:24;;;;;;;7.43;3.28;;;;;;;;;;5058528;28;20202;-83
2022/11/08 01:18:52;;;;;;;10.38;3.13;;;;;;;;;;5059383;28;20045;-82
2022/11/08 01:21:20;;;;;;;7.88;2.90;;;;;;;;;;5059805;28;20132;-83
2022/11/08 01:23:47;;;;;;;12.95;3.38;;;;;;;;;;5057528;28;20113;-83
2022/11/08 01:26:16;;;;;;;8.82;2.70;;;;;;;;;;5057328;28;20052;-82
2022/11/08 01:28:44;;;;;;;8.23;2.58;;;;;;;;;;5058151;28;20049;-83
2022/11/08 01:31:12;;;;;;;8.88;2.88;;;;;;;;;;5058886;28;20045;-83
2022/11/08 01:33:40;;;;;;;6.85;3.13;;;;;;;;;;5056190;28;20503;-82
2022/11/08 01:36:11;;;;;;;5.15;3.05;;;;;;;;;;5057228;28;20108;-83
2022/11/08 01:38:38;;;;;;;5.53;2.80;;;;;;;;;;5072924;28;20135;-83
2022/11/08 01:41:06;;;;;;;10.80;2.78;;;;;;;;;;5063696;28;20132;-84
2022/11/08 01:43:37;;;;;;;8.02;3.03;;;;;;;;;;5059239;28;20041;-82
2022/11/08 01:46:23;;;;;;;5.50;2.78;;;;;;;;;;5055733;28;20047;-82
2022/11/08 01:48:53;;;;;;;4.90;2.80;;;;;;;;;;5056931;28;20049;-82
2022/11/08 01:51:23;;;;;;;8.88;2.83;;;;;;;;;;5057568;28;20045;-83
2022/11/08 01:53:51;;;;;;;6.22;2.63;;;;;;;;;;5058161;28;20052;-83
2022/11/08 01:56:19;;;;;;;7.40;2.38;;;;;;;;;;5058137;28;20041;-83
2022/11/08 01:58:47;;;;;;;5.65;2.60;;;;;;;;;;5058141;28;20503;-83
2022/11/08 02:01:15;;;;;;;6.15;2.70;;;;;;;;;;5064019;28;20138;-83
2022/11/08 02:03:42;;;;;;;10.68;2.63;;;;;;;;;;5062237;28;20071;-83
2022/11/08 02:06:10;;;;;;;4.28;2.50;;;;;;;;;;5061257;28;20045;-84
2022/11/08 02:08:39;;;;;;;5.25;2.25;;;;;;;;;;5059212;28;20049;-83
2022/11/08 02:11:07;;;;;;;7.25;2.20;;;;;;;;;;5060139;28;20041;-83
2022/11/08 02:13:35;;;;;;;8.52;2.60;;;;;;;;;;5059704;28;20045;-83
2022/11/08 02:16:04;;;;;;;7.55;2.10;;;;;;;;;;5058015;28;20540;-83
2022/11/08 02:18:32;;;;;;;5.90;2.70;;;;;;;;;;5059972;28;20510;-83
2022/11/08 02:21:11;;;;;;;4.43;2.00;;;;;;;;;;5058932;28;20132;-83
2022/11/08 02:23:51;;;;;;;8.02;2.38;;;;;;;;;;5058829;28;20396;-83
2022/11/08 02:26:20;;;;;;;6.82;2.45;;;;;;;;;;5058683;28;20056;-83
2022/11/08 02:28:48;;;;;;;10.18;2.80;;;;;;;;;;5058841;28;20051;-83
2022/11/08 02:31:17;;;;;;;7.70;3.15;;;;;;;;;;5058603;28;20048;-83
2022/11/08 02:33:44;;;;;;;6.93;3.00;;;;;;;;;;5058505;28;20465;-83
2022/11/08 02:36:13;;;;;;;6.18;2.72;;;;;;;;;;5059162;28;20053;-83
2022/11/08 02:38:43;;;;;;;8.38;2.78;;;;;;;;;;5060068;28;20106;-83
2022/11/08 02:41:10;;;;;;;4.80;2.67;;;;;;;;;;5073328;28;20095;-83
2022/11/08 02:43:37;;;;;;;10.68;2.80;;;;;;;;;;5063690;28;20087;-83
2022/11/08 02:46:05;;;;;;;10.82;3.08;;;;;;;;;;5079682;28;20045;-83
2022/11/08 02:48:32;;;;;;;10.80;3.03;;;;;;;;;;5077986;28;20046;-83
2022/11/08 02:50:59;;;;;;;9.55;3.13;;;;;;;;;;5078334;28;20048;-83
2022/11/08 02:53:26;;;;;;;8.65;3.05;;;;;;;;;;5077976;28;20128;-84
2022/11/08 02:55:53;;;;;;;7.88;3.55;;;;;;;;;;5077928;28;20049;-83
2022/11/08 02:58:21;;;;;;;5.70;2.42;;;;;;;;;;5077579;28;20044;-82
2022/11/08 03:00:48;;;;;;;6.43;2.70;;;;;;;;;;5059415;28;20044;-83
2022/11/08 03:03:15;;;;;;;8.13;2.95;;;;;;;;;;5059613;28;20442;-83
2022/11/08 03:05:42;;;;;;;6.72;2.60;;;;;;;;;;5059246;28;20506;-82
2022/11/08 03:08:10;;;;;;;5.50;2.80;;;;;;;;;;5076672;28;20048;-83
2022/11/08 03:10:37;;;;;;;10.68;2.95;;;;;;;;;;5075553;28;20054;-82
2022/11/08 03:13:05;;;;;;;7.10;2.90;;;;;;;;;;5073444;28;20047;-83
2022/11/08 03:15:32;;;;;;;5.10;2.90;;;;;;;;;;5055216;28;20044;-82
2022/11/08 03:18:01;;;;;;;8.00;3.13;;;;;;;;;;5060736;28;20518;-82
2022/11/08 03:20:28;;;;;;;10.30;3.50;;;;;;;;;;5058704;28;20058;-83
2022/11/08 03:23:00;;;;;;;7.32;3.53;;;;;;;;;;5077461;28;20098;-82
2022/11/08 03:25:27;;;;;;;7.10;3.15;;;;;;;;;;5076689;28;20438;-82
2022/11/08 03:27:55;;;;;;;4.75;3.03;;;;;;;;;;5059990;28;20054;-82
2022/11/08 03:30:22;;;;;;;8.18;2.88;;;;;;;;;;5076891;28;20053;-82
2022/11/08 03:32:49;;;;;;;5.93;2.95;;;;;;;;;;5058861;28;20049;-83
2022/11/08 03:35:17;;;;;;;2.58;2.38;;;;;;;;;;5059400;28;20048;-82
2022/11/08 03:37:51;;;;;;;6.43;3.00;;;;;;;;;;5059800;28;20041;-82
2022/11/08 03:40:18;;;;;;;7.97;3.03;;;;;;;;;;5076722;22;20060;-81
2022/11/08 03:42:46;;;;;;;4.63;2.80;;;;;;;;;;5031099;28;20046;-84
2022/11/08 03:45:13;;;;;;;11.48;3.30;;;;;;;;;;5031540;28;20550;-84
2022/11/08 03:47:45;;;;;;;9.32;3.17;;;;;;;;;;5031629;28;20077;-83
2022/11/08 03:50:13;;;;;;;8.63;2.78;;;;;;;;;;5031701;28;20104;-84
2022/11/08 03:52:41;;;;;;;7.70;2.85;;;;;;;;;;5015272;28;20045;-84
2022/11/08 03:55:09;;;;;;;5.63;3.20;;;;;;;;;;5015236;28;20140;-84
2022/11/08 03:57:37;;;;;;;6.20;3.22;;;;;;;;;;5015163;28;20141;-84
2022/11/08 04:00:05;;;;;;;6.25;3.60;;;;;;;;;;5015383;28;20471;-83
2022/11/08 04:02:32;;;;;;;5.97;3.35;;;;;;;;;;5015293;28;20535;-84
2022/11/08 04:04:59;;;;;;;8.07;3.50;;;;;;;;;;5015169;28;20500;-85
2022/11/08 04:07:27;;;;;;;8.48;3.70;;;;;;;;;;5037323;28;20054;-85
2022/11/08 04:09:55;;;;;;;6.45;3.53;;;;;;;;;;5021899;28;20055;-85
2022/11/08 04:15:15;;;;;;;12.15;4.30;;;;;;;;;;5039935;28;20056;-85
2022/11/08 04:23:15;;;;;;;11.52;3.78;;;;;;;;;;5040266;28;20140;-86
2022/11/08 04:25:42;;;;;;;18.65;4.40;;;;;;;;;;5022030;28;20049;-85
2022/11/08 04:28:10;;;;;;;18.23;3.90;;;;;;;;;;5025088;28;20061;-85
2022/11/08 04:30:37;;;;;;;8.50;3.60;;;;;;;;;;5025386;28;20055;-85
2022/11/08 04:33:05;;;;;;;12.13;4.22;;;;;;;;;;5025252;28;20045;-85
2022/11/08 04:35:33;;;;;;;15.52;4.40;;;;;;;;;;5026342;28;20088;-85
2022/11/08 04:38:01;;;;;;;6.65;4.13;;;;;;;;;;5025067;28;20049;-85
2022/11/08 04:40:29;;;;;;;13.43;4.60;;;;;;;;;;5024395;28;20057;-85
2022/11/08 04:42:57;;;;;;;10.63;3.97;;;;;;;;;;5023322;28;20045;-85
2022/11/08 04:45:24;;;;;;;12.90;7.20;;;;;;;;;;5024272;28;20054;-85
2022/11/08 04:47:51;;;;;;;12.95;7.03;;;;;;;;;;5041418;28;20049;-83
2022/11/08 04:50:18;;;;;;;13.15;10.25;;;;;;;;;;5023412;28;20496;-86
2022/11/08 04:52:51;;;;;;;16.67;12.15;;;;;;;;;;5041264;28;20129;-85
2022/11/08 04:55:19;;;;;;;10.85;9.20;;;;;;;;;;5041737;28;20072;-85
2022/11/08 04:57:46;;;;;;;15.43;8.90;;;;;;;;;;5024415;28;20045;-85
2022/11/08 05:00:14;;;;;;;9.68;7.75;;;;;;;;;;5023736;28;20499;-85
2022/11/08 05:02:41;;;;;;;7.97;6.63;;;;;;;;;;5040892;28;20057;-84
2022/11/08 05:05:09;;;;;;;15.30;6.03;;;;;;;;;;5040916;28;20084;-85
2022/11/08 05:07:36;;;;;;;9.43;5.60;;;;;;;;;;5041058;28;20056;-85
2022/11/08 05:10:03;;;;;;;11.68;6.88;;;;;;;;;;5023139;28;20049;-85
2022/11/08 05:12:30;;;;;;;9.88;5.38;;;;;;;;;;5021309;28;20071;-85
2022/11/08 05:14:58;;;;;;;7.28;4.78;;;;;;;;;;5022159;28;20045;-85
2022/11/08 05:17:25;;;;;;;13.98;8.60;;;;;;;;;;5018947;28;20049;-83
2022/11/08 05:25:24;;;;;;;11.75;8.73;;;;;;;;;;5035421;28;20053;-83
2022/11/08 05:27:51;;;;;;;16.00;8.80;;;;;;;;;;5018438;28;20053;-85
2022/11/08 05:30:18;;;;;;;13.65;7.65;;;;;;;;;;5035406;28;20057;-85
2022/11/08 05:32:45;;;;;;;13.52;7.38;;;;;;;;;;5018309;28;20056;-84
2022/11/08 05:35:12;;;;;;;14.98;6.07;;;;;;;;;;5018184;28;20483;-85
2022/11/08 05:37:41;;;;;;;9.93;6.10;;;;;;;;;;5016905;28;20099;-83
2022/11/08 05:40:08;;;;;;;12.77;5.70;;;;;;;;;;5018410;28;20064;-84
2022/11/08 05:42:35;;;;;;;12.18;6.75;;;;;;;;;;5017538;28;20057;-84
2022/11/08 05:45:03;;;;;;;14.70;6.20;;;;;;;;;;5018301;28;20050;-84
2022/11/08 05:47:35;;;;;;;18.67;7.73;;;;;;;;;;5019028;28;20100;-84
2022/11/08 05:50:03;;;;;;;14.80;6.80;;;;;;;;;;5019649;28;20045;-85
2022/11/08 05:52:30;;;;;;;15.82;7.40;;;;;;;;;;5019361;28;20046;-85
2022/11/08 05:54:57;;;;;;;13.88;7.40;;;;;;;;;;5037319;28;20052;-85
2022/11/08 05:57:24;;;;;;;12.90;6.53;;;;;;;;;;5019594;28;20143;-85
2022/11/08 05:59:51;;;;;;;11.93;6.35;;;;;;;;;;5038170;28;20045;-85
2022/11/08 06:02:19;;;;;;;12.15;7.20;;;;;;;;;;5019611;28;20060;-84
2022/11/08 06:04:46;;;;;;;12.93;7.00;;;;;;;;;;5037420;28;20547;-84
2022/11/08 06:07:13;;;;;;;17.40;7.28;;;;;;;;;;5020248;28;20049;-85
2022/11/08 06:09:40;;;;;;;10.63;6.90;;;;;;;;;;5039533;28;20045;-85
2022/11/08 06:12:08;;;;;;;15.27;7.35;;;;;;;;;;5020985;28;20049;-85
2022/11/08 06:14:35;;;;;;;13.55;7.70;;;;;;;;;;5019489;28;20051;-85
2022/11/08 06:17:02;;;;;;;17.83;9.35;;;;;;;;;;5038354;28;20071;-85
2022/11/08 06:19:29;;;;;;;20.05;7.75;;;;;;;;;;5019854;28;20052;-85
2022/11/08 06:21:57;;;;;;;17.77;8.10;;;;;;;;;;5019392;28;20068;-85
2022/11/08 06:24:24;;;;;;;13.40;7.25;;;;;;;;;;5020884;28;20486;-85
2022/11/08 06:26:51;;;;;;;15.70;7.30;;;;;;;;;;5045233;28;20117;-86
2022/11/08 06:29:19;;;;;;;22.85;8.63;;;;;;;;;;5023987;28;20053;-84
2022/11/08 06:31:46;;;;;;;17.05;7.85;;;;;;;;;;5025725;28;20466;-85
2022/11/08 06:34:13;;;;;;;15.77;7.75;;;;;;;;;;5026353;28;20073;-85
2022/11/08 06:36:40;;;;;;;13.75;8.20;;;;;;;;;;5038756;28;20056;-85
2022/11/08 06:39:08;;;;;;;15.13;7.80;;;;;;;;;;5019571;28;20049;-85
2022/11/08 06:41:35;;;;;;;12.25;7.78;;;;;;;;;;5019427;28;20061;-86
2022/11/08 06:44:02;;;;;;;18.05;7.13;;;;;;;;;;5036694;28;20429;-85
2022/11/08 06:46:29;;;;;;;10.32;7.20;;;;;;;;;;5019267;28;20526;-86
2022/11/08 06:48:57;;;;;;;13.90;7.40;;;;;;;;;;5018540;28;20060;-85
2022/11/08 06:51:24;;;;;;;13.75;7.03;;;;;;;;;;5019048;28;20052;-85
2022/11/08 06:53:51;;;;;;;15.80;7.38;;;;;;;;;;5020775;28;20056;-85
2022/11/08 06:56:18;;;;;;;17.80;7.60;;;;;;;;;;5018511;28;20049;-85
2022/11/08 06:58:45;;;;;;;10.25;7.32;;;;;;;;;;5019149;28;20041;-84
2022/11/08 07:01:13;;;;;;;18.67;7.40;;;;;;;;;;5019530;28;20063;-85
2022/11/08 07:03:40;;;;;;;15.65;7.25;;;;;;;;;;5039858;28;20051;-85
2022/11/08 07:06:07;;;;;;;9.90;7.07;;;;;;;;;;5021870;28;20500;-85
2022/11/08 07:08:35;;;;;;;20.08;7.30;;;;;;;;;;5037408;28;20057;-86
2022/11/08 07:11:03;;;;;;;12.82;6.63;;;;;;;;;;5022302;28;20069;-85
2022/11/08 07:13:30;;;;;;;8.68;5.72;;;;;;;;;;5021912;28;20041;-85
2022/11/08 07:15:58;;;;;;;13.57;6.85;;;;;;;;;;5040935;28;20132;-85
2022/11/08 07:18:26;;;;;;;9.77;7.18;;;;;;;;;;5021166;28;20041;-85
2022/11/08 07:20:57;;;;;;;16.38;7.43;;;;;;;;;;5021768;28;20061;-85
2022/11/08 07:23:24;;;;;;;10.57;7.22;;;;;;;;;;5023033;28;20051;-85
2022/11/08 07:25:51;;;;;;;11.32;7.25;;;;;;;;;;5022525;28;20056;-85
2022/11/08 07:28:18;;;;;;;11.02;7.45;;;;;;;;;;5017762;28;20053;-85
2022/11/08 07:30:47;;;;;;;17.42;7.55;;;;;;;;;;5017305;28;20057;-85
2022/11/08 07:33:14;;;;;;;14.60;8.00;;;;;;;;;;5020816;28;20148;-84
2022/11/08 07:35:45;;;;;;;21.08;8.57;;;;;;;;;;5039307;28;20432;-85
2022/11/08 07:38:12;;;;;;;13.55;8.32;;;;;;;;;;5022986;28;20042;-85
2022/11/08 07:40:39;;;;;;;13.07;9.02;;;;;;;;;;5021713;28;20060;-85
2022/11/08 07:43:06;;;;;;;19.45;9.48;;;;;;;;;;5021324;28;20056;-85
2022/11/08 07:45:39;;;;;;;18.45;7.70;;;;;;;;;;5021995;28;20045;-85
2022/11/08 07:48:08;;;;;;;19.15;10.15;;;;;;;;;;5022002;28;20049;-86
2022/11/08 07:50:39;;;;;;;14.82;9.88;;;;;;;;;;5022158;28;20180;-84
2022/11/08 07:53:06;;;;;;;14.15;9.18;;;;;;;;;;5021493;28;20052;-85
2022/11/08 07:55:35;;;;;;;25.48;13.68;;;;;;;;;;5021123;28;20060;-85
2022/11/08 07:58:02;;;;;;;20.55;11.05;;;;;;;;;;5039190;28;20059;-85
2022/11/08 08:00:30;;;;;;;28.75;16.05;;;;;;;;;;5019980;28;20132;-84
2022/11/08 08:02:58;;;;;;;31.08;13.35;;;;;;;;;;5020365;28;20057;-85
2022/11/08 08:05:32;;;;;;;22.30;13.80;;;;;;;;;;5021948;28;20049;-85
2022/11/08 08:08:00;;;;;;;16.33;11.73;;;;;;;;;;5021091;28;20060;-84
2022/11/08 08:10:28;;;;;;;32.72;21.58;;;;;;;;;;5018061;28;20053;-85
2022/11/08 08:12:56;;;;;;;103.78;58.10;;;;;;;;;;5020158;28;20419;-85
2022/11/08 08:15:23;;;;;;;57.00;34.47;;;;;;;;;;5038965;28;20049;-85
2022/11/08 08:17:50;;;;;;;57.35;28.67;;;;;;;;;;5021432;28;20072;-85
2022/11/08 08:20:18;;;;;;;52.25;26.05;;;;;;;;;;5020984;28;20055;-85
2022/11/08 08:22:50;;;;;;;33.38;17.65;;;;;;;;;;5021246;28;20054;-85
2022/11/08 08:25:17;;;;;;;34.83;17.67;;;;;;;;;;5020558;28;20045;-85
2022/11/08 08:27:48;;;;;;;35.65;16.60;;;;;;;;;;5018457;28;20053;-84
2022/11/08 08:30:16;;;;;;;31.38;15.25;;;;;;;;;;5015558;28;20056;-84
2022/11/08 08:32:44;;;;;;;33.58;14.98;;;;;;;;;;5032468;28;20056;-84
2022/11/08 08:35:19;;;;;;;45.38;17.05;;;;;;;;;;5015888;28;20045;-84
2022/11/08 08:37:46;;;;;;;32.88;17.00;;;;;;;;;;5015102;28;20053;-84
2022/11/08 08:40:13;;;;;;;45.53;18.23;;;;;;;;;;5014779;28;20060;-84
2022/11/08 08:42:40;;;;;;;43.53;17.92;;;;;;;;;;5014936;28;20049;-84
2022/11/08 08:45:09;;;;;;;29.85;15.55;;;;;;;;;;5032250;28;20059;-84
2022/11/08 08:47:41;;;;;;;34.42;14.93;;;;;;;;;;5015890;28;20053;-84
2022/11/08 08:50:08;;;;;;;30.30;14.70;;;;;;;;;;5020168;28;20053;-85
2022/11/08 08:52:35;;;;;;;30.75;11.38;;;;;;;;;;5024345;28;20055;-85
2022/11/08 08:55:03;;;;;;;18.73;6.30;;;;;;;;;;5022759;28;20535;-85
2022/11/08 08:57:30;;;;;;;23.45;8.40;;;;;;;;;;5040628;28;20049;-86
2022/11/08 08:59:57;;;;;;;12.23;5.10;;;;;;;;;;5022693;28;20055;-86
2022/11/08 09:02:44;;;;;;;6.00;3.53;;;;;;;;;;5024243;28;20054;-85
2022/11/08 09:05:12;;;;;;;18.77;4.00;;;;;;;;;;5023028;28;20112;-86
2022/11/08 09:07:39;;;;;;;10.13;3.40;;;;;;;;;;5023031;28;20067;-85
2022/11/08 09:10:07;;;;;;;13.02;3.20;;;;;;;;;;5022703;28;20050;-86
2022/11/08 09:12:35;;;;;;;20.65;2.80;;;;;;;;;;5024315;28;20195;-86
2022/11/08 09:15:02;;;;;;;21.38;5.22;;;;;;;;;;5027454;28;20050;-86
2022/11/08 09:17:30;;;;;;;4.47;1.80;;;;;;;;;;5026347;28;20056;-84
2022/11/08 09:19:57;;;;;;;6.32;2.20;;;;;;;;;;5026223;28;20049;-86
2022/11/08 09:22:24;;;;;;;3.08;1.88;;;;;;;;;;5024356;28;20077;-86
2022/11/08 09:24:51;;;;;;;3.63;1.80;;;;;;;;;;5023881;28;20049;-85
2022/11/08 09:27:19;;;;;;;10.43;2.45;;;;;;;;;;5023094;28;20451;-85
2022/11/08 09:29:46;;;;;;;12.25;2.28;;;;;;;;;;5025228;28;20049;-86
2022/11/08 09:32:13;;;;;;;35.45;3.60;;;;;;;;;;5024460;28;20045;-85
2022/11/08 09:34:40;;;;;;;10.30;1.83;;;;;;;;;;5023840;28;20053;-86
2022/11/08 09:37:07;;;;;;;16.70;2.13;;;;;;;;;;5023832;28;20049;-85
2022/11/08 09:39:34;;;;;;;10.00;1.80;;;;;;;;;;5028836;28;20041;-85
2022/11/08 09:42:08;;;;;;;2.92;1.23;;;;;;;;;;5062128;28;20121;-86
2022/11/08 09:44:38;;;;;;;1.75;1.17;;;;;;;;;;5044000;28;20082;-85
2022/11/08 09:47:12;;;;;;;3.60;1.00;;;;;;;;;;5041896;28;20044;-86
2022/11/08 09:49:42;;;;;;;2.53;1.30;;;;;;;;;;5043467;28;20059;-86
2022/11/08 09:52:11;;;;;;;2.78;1.10;;;;;;;;;;5042339;28;20049;-86
2022/11/08 09:54:42;;;;;;;2.90;1.15;;;;;;;;;;5043509;28;20044;-84
2022/11/08 09:57:31;;;;;;;2.08;0.98;;;;;;;;;;5061672;28;20053;-86
2022/11/08 10:00:01;;;;;;;6.20;1.20;;;;;;;;;;5061724;28;20506;-86
2022/11/08 10:02:28;;;;;;;1.77;1.23;;;;;;;;;;5062697;28;20128;-85
2022/11/08 10:04:58;;;;;;;4.70;1.08;;;;;;;;;;5043137;28;20470;-85
2022/11/08 10:07:28;;;;;;;2.05;0.90;;;;;;;;;;5043113;28;20052;-86
2022/11/08 10:10:04;;;;;;;3.78;1.13;;;;;;;;;;5057540;28;20141;-86
2022/11/08 10:12:53;;;;;;;2.72;1.17;;;;;;;;;;5056192;28;20525;-84
2022/11/08 10:15:20;;;;;;;8.90;1.60;;;;;;;;;;5055544;28;20487;-84
2022/11/08 10:17:47;;;;;;;2.65;1.00;;;;;;;;;;5038106;28;20041;-84
2022/11/08 10:20:17;;;;;;;2.55;1.40;;;;;;;;;;5055669;28;20049;-84
2022/11/08 10:22:58;;;;;;;2.08;1.13;;;;;;;;;;5038848;28;20052;-83
2022/11/08 10:25:30;;;;;;;3.83;1.20;;;;;;;;;;5037022;28;20418;-84
2022/11/08 10:28:00;;;;;;;5.25;1.05;;;;;;;;;;5055782;28;20049;-83
2022/11/08 10:30:32;;;;;;;2.08;1.20;;;;;;;;;;5037631;28;20139;-83
2022/11/08 10:33:00;;;;;;;1.67;1.20;;;;;;;;;;5037820;28;20145;-83
2022/11/08 10:35:27;;;;;;;2.40;0.85;;;;;;;;;;5037483;28;20055;-86
2022/11/08 10:37:55;;;;;;;1.45;1.13;;;;;;;;;;5055088;28;20051;-85
2022/11/08 10:40:31;;;;;;;2.15;0.85;;;;;;;;;;5036877;28;20049;-85
2022/11/08 10:43:05;;;;;;;4.13;1.60;;;;;;;;;;5055132;28;20504;-84
2022/11/08 10:45:35;;;;;;;2.13;0.90;;;;;;;;;;5039190;28;20087;-84
2022/11/08 10:48:03;;;;;;;3.38;1.00;;;;;;;;;;5056791;28;20140;-84
2022/11/08 10:50:43;;;;;;;5.68;1.10;;;;;;;;;;5038251;28;20143;-85
2022/11/08 10:53:19;;;;;;;1.52;1.10;;;;;;;;;;5056219;28;20045;-84
2022/11/08 10:55:51;;;;;;;1.20;0.98;;;;;;;;;;5038258;28;20045;-86
2022/11/08 10:58:30;;;;;;;3.45;1.05;;;;;;;;;;5038068;28;20049;-84
2022/11/08 11:01:04;;;;;;;3.88;1.23;;;;;;;;;;5037725;28;20041;-85
2022/11/08 11:03:31;;;;;;;3.85;1.10;;;;;;;;;;5038302;28;20211;-84
2022/11/08 11:06:03;;;;;;;1.20;1.02;;;;;;;;;;5056411;28;20044;-85
2022/11/08 11:08:31;;;;;;;1.00;0.88;;;;;;;;;;5037855;28;20058;-84
2022/11/08 11:11:37;;;;;;;1.85;1.00;;;;;;;;;;5038048;28;20130;-83
2022/11/08 11:14:13;;;;;;;3.35;1.42;;;;;;;;;;4957977;28;20058;-82
2022/11/08 11:16:51;;;;;;;1.52;1.08;;;;;;;;;;4958620;28;20047;-84
2022/11/08 11:19:19;;;;;;;1.13;0.85;;;;;;;;;;5007918;28;20067;-84
2022/11/08 11:21:48;;;;;;;2.45;1.40;;;;;;;;;;5036855;28;20053;-81
2022/11/08 11:24:19;;;;;;;4.03;1.45;;;;;;;;;;5036836;28;20045;-85
2022/11/08 11:27:06;;;;;;;3.42;1.10;;;;;;;;;;5055069;28;20103;-84
2022/11/08 11:29:37;;;;;;;2.00;1.00;;;;;;;;;;5037451;28;20048;-84
2022/11/08 11:32:24;;;;;;;1.73;1.27;;;;;;;;;;5037745;28;20053;-85
2022/11/08 11:35:11;;;;;;;1.85;1.02;;;;;;;;;;5041912;28;20041;-86
2022/11/08 11:37:40;;;;;;;1.38;1.00;;;;;;;;;;5040775;28;20053;-85
2022/11/08 11:40:11;;;;;;;1.98;0.90;;;;;;;;;;5044914;28;20103;-85
2022/11/08 11:42:59;;;;;;;1.83;1.13;;;;;;;;;;5020032;28;20057;-84
2022/11/08 11:45:32;;;;;;;1.40;0.90;;;;;;;;;;5019282;28;20046;-84
2022/11/08 11:48:29;;;;;;;2.03;0.90;;;;;;;;;;4998753;28;20061;-84
2022/11/08 11:50:57;;;;;;;2.58;0.90;;;;;;;;;;4986624;28;20046;-85
2022/11/08 11:53:27;;;;;;;4.40;1.38;;;;;;;;;;4998628;28;20052;-85
2022/11/08 11:56:04;;;;;;;1.58;0.98;;;;;;;;;;4997741;28;20137;-85
2022/11/08 11:58:37;;;;;;;7.88;2.35;;;;;;;;;;5000722;28;20413;-83
2022/11/08 12:01:12;;;;;;;4.70;1.33;;;;;;;;;;5001250;28;20105;-85
2022/11/08 12:03:44;;;;;;;1.30;1.00;;;;;;;;;;5000457;28;20161;-85
2022/11/08 12:06:15;;;;;;;2.60;0.98;;;;;;;;;;5000155;28;20141;-86
2022/11/08 12:09:01;;;;;;;2.42;1.00;;;;;;;;;;5002739;28;20141;-86
2022/11/08 12:11:28;;;;;;;2.25;1.05;;;;;;;;;;5000579;28;20081;-85
2022/11/08 12:14:01;;;;;;;8.43;1.50;;;;;;;;;;5001235;28;20563;-85
2022/11/08 12:16:33;;;;;;;2.55;1.10;;;;;;;;;;5001255;28;20560;-85
2022/11/08 12:19:20;;;;;;;6.32;1.40;;;;;;;;;;5002007;28;20050;-85
2022/11/08 12:21:54;;;;;;;4.18;1.17;;;;;;;;;;5001629;28;20047;-86
2022/11/08 12:24:24;;;;;;;2.15;1.10;;;;;;;;;;4999084;28;20406;-85
2022/11/08 12:26:56;;;;;;;4.07;1.35;;;;;;;;;;4997871;28;20110;-85
2022/11/08 12:29:25;;;;;;;1.70;1.08;;;;;;;;;;4998985;28;20137;-84
2022/11/08 12:31:59;;;;;;;5.88;2.35;;;;;;;;;;4998408;28;20193;-85
2022/11/08 12:34:45;;;;;;;0.80;0.80;;;;;;;;;;4997410;28;20047;-84
2022/11/08 12:37:22;;;;;;;9.13;1.73;;;;;;;;;;4997884;28;20057;-85
2022/11/08 12:39:52;;;;;;;1.05;0.85;;;;;;;;;;4998704;28;20141;-85
2022/11/08 12:42:42;;;;;;;2.88;0.77;;;;;;;;;;5012056;28;20153;-86
2022/11/08 12:45:26;;;;;;;0.80;0.80;;;;;;;;;;5014334;28;20054;-85
2022/11/08 12:47:56;;;;;;;1.92;0.93;;;;;;;;;;5019406;28;20054;-83
2022/11/08 12:50:32;;;;;;;4.07;0.93;;;;;;;;;;5016999;28;20109;-85
2022/11/08 12:53:18;;;;;;;1.88;0.90;;;;;;;;;;5019987;28;20049;-85
2022/11/08 12:55:47;;;;;;;1.35;0.70;;;;;;;;;;5022329;28;20049;-85
2022/11/08 12:58:22;;;;;;;9.30;1.58;;;;;;;;;;5022548;28;20049;-86
2022/11/08 13:00:51;;;;;;;4.80;1.40;;;;;;;;;;5021421;28;20049;-84
2022/11/08 13:03:28;;;;;;;27.88;2.95;;;;;;;;;;5023315;28;20060;-85
2022/11/08 13:06:04;;;;;;;14.75;1.80;;;;;;;;;;5022158;28;20060;-85
2022/11/08 13:08:35;;;;;;;8.27;1.88;;;;;;;;;;5022727;28;20495;-85
2022/11/08 13:11:05;;;;;;;5.30;1.40;;;;;;;;;;5023540;28;20212;-85
2022/11/08 13:13:52;;;;;;;1.23;1.10;;;;;;;;;;5022838;28;20056;-85
2022/11/08 13:16:24;;;;;;;1.08;0.90;;;;;;;;;;5022471;28;20665;-85
2022/11/08 13:18:52;;;;;;;2.85;1.17;;;;;;;;;;5023195;28;20049;-86
2022/11/08 13:21:25;;;;;;;3.35;1.13;;;;;;;;;;5021741;28;20439;-85
2022/11/08 13:24:12;;;;;;;13.18;1.73;;;;;;;;;;5020851;28;20566;-84
2022/11/08 13:27:20;;;;;;;3.45;1.08;;;;;;;;;;5017331;28;20054;-85
2022/11/08 13:29:47;;;;;;;4.75;1.70;;;;;;;;;;5016181;28;20056;-83
2022/11/08 13:32:21;;;;;;;10.75;1.58;;;;;;;;;;5014710;28;20053;-84
2022/11/08 13:34:48;;;;;;;;;;;;;;;;;;5016466;28;20128;-84
2022/11/08 13:37:34;;;;;;;3.30;1.15;;;;;;;;;;5020883;28;19965;-85
2022/11/08 13:40:08;;;;;;;2.35;1.60;;;;;;;;;;5024036;28;20046;-85
2022/11/08 13:42:35;;;;;;;19.70;2.00;;;;;;;;;;5028041;28;20058;-85
2022/11/08 13:45:24;;;;;;;13.85;1.50;;;;;;;;;;5027111;28;20140;-85
2022/11/08 13:47:53;;;;;;;3.53;1.13;;;;;;;;;;5022684;28;20487;-85
2022/11/08 13:50:27;;;;;;;3.53;1.30;;;;;;;;;;5023068;28;20057;-85
2022/11/08 13:52:54;;;;;;;;;;;;;;;;;;5021666;28;20045;-83
2022/11/08 13:55:57;;;;;;;6.28;1.55;;;;;;;;;;5016305;28;20215;-84
2022/11/08 13:58:32;;;;;;;9.02;1.40;;;;;;;;;;4958314;28;20490;-85
2022/11/08 14:01:01;;;;;;;8.68;1.98;;;;;;;;;;5010522;28;20050;-85
2022/11/08 14:03:48;;;;;;;25.40;3.17;;;;;;;;;;5022111;28;20137;-85
2022/11/08 14:06:18;;;;;;;58.22;5.43;;;;;;;;;;5012286;28;20077;-85
2022/11/08 14:08:48;;;;;;;38.10;3.55;;;;;;;;;;5022565;28;20136;-85
2022/11/08 14:11:25;;;;;;;16.65;2.17;;;;;;;;;;5022186;28;20144;-85
2022/11/08 14:14:02;;;;;;;15.60;2.55;;;;;;;;;;5020455;28;20046;-85
2022/11/08 14:16:39;;;;;;;4.50;1.45;;;;;;;;;;5020956;28;20046;-85
2022/11/08 14:19:23;;;;;;;15.18;2.22;;;;;;;;;;5020895;28;20045;-85
2022/11/08 14:21:50;;;;;;;;;;;;;;;;;;5020139;28;20050;-85
2022/11/08 14:24:20;;;;;;;1.85;1.33;;;;;;;;;;5021529;28;20348;-85
2022/11/08 14:26:47;;;;;;;11.05;1.45;;;;;;;;;;5020386;28;20046;-84
2022/11/08 14:29:16;;;;;;;3.42;1.40;;;;;;;;;;5021691;28;20136;-85
2022/11/08 14:31:43;;;;;;;4.85;1.83;;;;;;;;;;5021067;28;20053;-85
2022/11/08 14:34:31;;;;;;;14.75;1.95;;;;;;;;;;5020191;28;20060;-85
2022/11/08 14:36:59;;;;;;;11.65;1.58;;;;;;;;;;5023846;28;20042;-84
2022/11/08 14:39:28;;;;;;;1.42;1.33;;;;;;;;;;5029036;28;20054;-85
2022/11/08 14:41:57;;;;;;;3.38;1.60;;;;;;;;;;5037479;28;20061;-85
2022/11/08 14:44:24;;;;;;;7.07;1.35;;;;;;;;;;5043193;28;20060;-85
2022/11/08 14:46:52;;;;;;;5.13;1.35;;;;;;;;;;5023808;28;20064;-85
2022/11/08 14:49:21;;;;;;;39.25;6.82;;;;;;;;;;5024038;28;20055;-85
2022/11/08 14:52:02;;;;;;;12.82;2.55;;;;;;;;;;5024360;28;20079;-85
2022/11/08 14:54:37;;;;;;;12.70;2.63;;;;;;;;;;5023467;28;20052;-85
2022/11/08 14:57:05;;;;;;;12.70;1.95;;;;;;;;;;5022844;28;20052;-85
2022/11/08 14:59:32;;;;;;;15.48;1.95;;;;;;;;;;5039076;28;20072;-85
2022/11/08 15:01:59;;;;;;;14.15;2.70;;;;;;;;;;5039547;28;20041;-85
2022/11/08 15:04:26;;;;;;;14.63;1.98;;;;;;;;;;5038748;28;20045;-83
2022/11/08 15:06:58;;;;;;;43.13;2.92;;;;;;;;;;5038169;28;20049;-85
2022/11/08 15:09:33;;;;;;;15.85;2.08;;;;;;;;;;5020721;28;20053;-85
2022/11/08 15:12:14;;;;;;;8.57;2.33;;;;;;;;;;5020232;28;20060;-85
2022/11/08 15:14:49;;;;;;;13.95;2.10;;;;;;;;;;5019967;28;20101;-85
2022/11/08 15:17:29;;;;;;;5.05;2.00;;;;;;;;;;5020051;28;20096;-84
2022/11/08 15:20:04;;;;;;;20.17;2.28;;;;;;;;;;5037836;28;20060;-85